Time;durP1;ratioP1;P1;durP2;ratioP2;P2;SDS_P1;SDS_P2;PMS_P1;PMS_P2;Temp;Humidity;BMP_temperature;BMP_pressure;BME280_temperature;BME280_humidity;BME280_pressure;Samples;Min_cycle;Max_cycle;Signal;HPM_P1;HPM_P2
2021/06/13 00:02:06;;;;;;;15.60;10.75;;;;;;;18.65;100.00;100934.97;5093478;28;20039;-76
2021/06/13 00:04:52;;;;;;;12.95;10.38;;;;;;;18.63;100.00;100933.31;5094614;28;20125;-76
2021/06/13 00:07:38;;;;;;;17.45;10.98;;;;;;;18.48;100.00;100934.00;5094800;28;20020;-76
2021/06/13 00:10:24;;;;;;;15.00;10.43;;;;;;;18.21;100.00;100940.56;5094839;28;20032;-76
2021/06/13 00:13:12;;;;;;;19.20;10.98;;;;;;;18.50;100.00;100940.13;5094480;28;20020;-77
2021/06/13 00:15:58;;;;;;;16.73;11.25;;;;;;;18.34;100.00;100944.41;5095302;28;20512;-76
2021/06/13 00:18:45;;;;;;;13.13;11.10;;;;;;;18.65;100.00;100936.78;5093962;28;20068;-76
2021/06/13 00:21:30;;;;;;;18.13;10.88;;;;;;;18.24;100.00;100935.09;5094631;28;20096;-76
2021/06/13 00:24:16;;;;;;;13.18;11.40;;;;;;;18.51;100.00;100942.72;5094271;28;20467;-76
2021/06/13 00:27:03;;;;;;;14.05;11.27;;;;;;;18.69;100.00;100941.00;5094780;28;20124;-76
2021/06/13 00:29:49;;;;;;;14.52;11.50;;;;;;;18.65;100.00;100934.13;5094692;28;20390;-76
2021/06/13 00:32:35;;;;;;;14.55;12.60;;;;;;;18.62;100.00;100945.72;5094468;28;20024;-76
2021/06/13 00:35:22;;;;;;;13.35;11.18;;;;;;;18.66;100.00;100941.13;5094097;28;20028;-75
2021/06/13 00:38:08;;;;;;;15.60;11.63;;;;;;;18.67;100.00;100940.19;5093939;28;20028;-76
2021/06/13 00:40:54;;;;;;;13.23;10.93;;;;;;;18.19;100.00;100943.28;5094381;28;20024;-76
2021/06/13 00:43:40;;;;;;;15.25;11.93;;;;;;;18.36;100.00;100954.03;5093607;28;20032;-76
2021/06/13 00:46:25;;;;;;;16.48;11.65;;;;;;;18.14;100.00;100941.78;5094421;28;20024;-76
2021/06/13 00:49:11;;;;;;;15.93;11.38;;;;;;;18.43;100.00;100930.72;5093463;28;20118;-75
2021/06/13 00:51:57;;;;;;;15.73;11.82;;;;;;;18.14;100.00;100932.03;5093489;28;20036;-75
2021/06/13 00:54:43;;;;;;;15.18;11.13;;;;;;;18.22;100.00;100936.97;5092846;28;20032;-75
2021/06/13 00:57:29;;;;;;;14.40;11.95;;;;;;;18.18;100.00;100927.44;5094244;28;20044;-76
2021/06/13 01:00:16;;;;;;;15.88;10.80;;;;;;;18.49;100.00;100919.84;5093908;28;20521;-76
2021/06/13 01:03:02;;;;;;;15.35;10.80;;;;;;;18.15;100.00;100915.19;5094127;28;20039;-76
2021/06/13 01:05:48;;;;;;;12.93;11.48;;;;;;;18.46;100.00;100910.22;5093319;28;20052;-75
2021/06/13 01:08:55;;;;;;;13.85;11.25;;;;;;;18.25;100.00;100908.50;5093926;28;20020;-75
2021/06/13 01:12:05;;;;;;;14.52;11.98;;;;;;;18.57;100.00;100904.41;5093343;28;20106;-75
2021/06/13 01:15:05;;;;;;;19.48;11.65;;;;;;;18.51;100.00;100894.06;5098133;28;20460;-75
2021/06/13 01:18:10;;;;;;;17.20;12.35;;;;;;;18.68;100.00;100894.13;5097499;28;20089;-76
2021/06/13 01:21:04;;;;;;;15.73;11.85;;;;;;;18.50;100.00;100885.28;5097710;28;20034;-76
2021/06/13 01:24:28;;;;;;;16.05;12.10;;;;;;;18.29;100.00;100890.69;5097582;28;20440;-76
2021/06/13 01:28:04;;;;;;;15.13;12.30;;;;;;;18.38;100.00;100885.84;5097952;28;20031;-76
2021/06/13 01:30:55;;;;;;;13.57;10.98;;;;;;;18.72;100.00;100877.13;5069766;28;20024;-76
2021/06/13 01:33:41;;;;;;;14.85;11.95;;;;;;;18.79;100.00;100878.56;5097117;28;20039;-76
2021/06/13 01:36:29;;;;;;;18.35;13.48;;;;;;;18.66;100.00;100875.63;5097617;28;20020;-76
2021/06/13 01:39:25;;;;;;;15.50;11.68;;;;;;;18.66;100.00;100870.31;5097693;28;20035;-76
2021/06/13 01:42:13;;;;;;;16.80;12.57;;;;;;;18.43;100.00;100880.31;5097642;28;20372;-76
2021/06/13 01:45:02;;;;;;;18.90;12.15;;;;;;;18.68;100.00;100868.47;5097712;28;20056;-77
2021/06/13 01:47:48;;;;;;;17.92;12.25;;;;;;;18.66;100.00;100866.81;5097053;28;20031;-76
2021/06/13 01:50:36;;;;;;;13.30;11.60;;;;;;;18.73;100.00;100869.09;5097971;28;20410;-77
2021/06/13 01:53:22;;;;;;;13.35;11.68;;;;;;;18.64;100.00;100866.03;5096717;28;20448;-76
2021/06/13 01:56:13;;;;;;;18.08;11.98;;;;;;;18.83;100.00;100869.50;5097259;28;20527;-76
2021/06/13 01:58:59;;;;;;;19.35;12.20;;;;;;;18.77;100.00;100870.66;5097703;28;20024;-76
2021/06/13 02:01:47;;;;;;;15.07;12.45;;;;;;;18.40;100.00;100867.19;5097275;28;20024;-76
2021/06/13 02:04:36;;;;;;;14.63;11.30;;;;;;;18.52;100.00;100859.50;5097525;28;20452;-77
2021/06/13 02:07:23;;;;;;;15.90;12.13;;;;;;;18.65;100.00;100860.63;5096578;28;20024;-77
2021/06/13 02:10:13;;;;;;;16.10;11.75;;;;;;;18.05;100.00;100863.47;5096545;28;20028;-76
2021/06/13 02:13:00;;;;;;;14.77;11.13;;;;;;;18.33;100.00;100855.13;5096190;28;20448;-77
2021/06/13 02:15:46;;;;;;;15.27;11.73;;;;;;;18.51;100.00;100854.28;5097257;28;20211;-76
2021/06/13 02:18:32;;;;;;;17.17;14.43;;;;;;;18.36;100.00;100847.03;5096261;28;20525;-76
2021/06/13 02:21:19;;;;;;;16.90;12.40;;;;;;;18.13;100.00;100844.59;5097453;28;20105;-76
2021/06/13 02:24:05;;;;;;;23.83;17.95;;;;;;;18.06;100.00;100838.72;5096123;28;20096;-76
2021/06/13 02:26:51;;;;;;;20.05;13.25;;;;;;;18.21;100.00;100848.59;5096340;28;20070;-75
2021/06/13 02:29:39;;;;;;;21.10;14.63;;;;;;;18.38;100.00;100831.91;5096914;28;20028;-76
2021/06/13 02:32:25;;;;;;;16.55;12.45;;;;;;;18.15;100.00;100832.09;5096279;28;20028;-76
2021/06/13 02:35:11;;;;;;;18.33;13.18;;;;;;;18.43;100.00;100817.50;5095755;28;20031;-76
2021/06/13 02:37:58;;;;;;;15.55;11.82;;;;;;;18.28;100.00;100819.97;5096774;28;20016;-75
2021/06/13 02:40:45;;;;;;;14.13;11.23;;;;;;;18.02;100.00;100815.03;5096751;28;20035;-76
2021/06/13 02:43:32;;;;;;;14.50;11.75;;;;;;;18.13;100.00;100812.75;5095791;28;20048;-76
2021/06/13 02:46:17;;;;;;;15.70;12.02;;;;;;;17.98;100.00;100813.47;5096787;28;20051;-76
2021/06/13 02:49:08;;;;;;;15.35;11.65;;;;;;;18.22;100.00;100809.66;5096227;28;20169;-76
2021/06/13 02:52:25;;;;;;;14.07;10.50;;;;;;;18.02;100.00;100813.25;5096675;28;20032;-76
2021/06/13 02:55:18;;;;;;;15.90;10.98;;;;;;;17.96;100.00;100810.00;5095808;28;20338;-76
2021/06/13 02:58:19;;;;;;;17.20;11.07;;;;;;;18.26;100.00;100806.81;5096287;28;20063;-76
2021/06/13 03:01:06;;;;;;;14.40;11.98;;;;;;;18.24;100.00;100807.78;5096109;28;20020;-75
2021/06/13 03:03:53;;;;;;;16.60;12.23;;;;;;;18.32;100.00;100803.84;5096406;28;20393;-75
2021/06/13 03:06:39;;;;;;;15.80;10.40;;;;;;;17.69;100.00;100806.81;5096040;28;20039;-75
2021/06/13 03:09:29;;;;;;;14.98;10.82;;;;;;;17.87;100.00;100799.84;5096889;28;20020;-76
2021/06/13 03:12:17;;;;;;;12.73;10.65;;;;;;;18.31;100.00;100794.19;5095967;28;20024;-76
2021/06/13 03:15:03;;;;;;;14.35;11.00;;;;;;;18.18;100.00;100798.34;5097335;28;20460;-76
2021/06/13 03:17:50;;;;;;;11.65;9.93;;;;;;;18.17;100.00;100790.47;5097657;28;20036;-76
2021/06/13 03:20:37;;;;;;;12.32;10.15;;;;;;;18.38;100.00;100794.78;5097203;28;20024;-76
2021/06/13 03:23:24;;;;;;;11.23;10.00;;;;;;;18.20;100.00;100800.91;5095328;28;20122;-76
2021/06/13 03:26:12;;;;;;;13.70;9.93;;;;;;;18.13;100.00;100804.81;5095522;28;20050;-76
2021/06/13 03:29:00;;;;;;;14.80;9.90;;;;;;;18.34;100.00;100801.16;5094525;28;20351;-76
2021/06/13 03:31:48;;;;;;;15.02;9.75;;;;;;;18.28;100.00;100796.09;5094973;28;20032;-77
2021/06/13 03:34:36;;;;;;;13.57;10.02;;;;;;;18.35;100.00;100803.75;5094804;28;20059;-77
2021/06/13 03:37:23;;;;;;;15.68;10.07;;;;;;;17.85;100.00;100797.25;5092507;28;20109;-75
2021/06/13 03:40:10;;;;;;;10.00;9.00;;;;;;;18.37;100.00;100796.56;5095430;28;20047;-75
2021/06/13 03:42:57;;;;;;;15.45;9.57;;;;;;;18.28;100.00;100801.41;5094664;28;20376;-75
2021/06/13 03:45:43;;;;;;;10.63;9.23;;;;;;;18.28;100.00;100796.09;5095097;28;20027;-76
2021/06/13 03:48:30;;;;;;;13.85;9.30;;;;;;;18.61;100.00;100790.06;5094658;28;20360;-75
2021/06/13 03:51:17;;;;;;;10.90;9.05;;;;;;;18.47;100.00;100791.69;5094974;28;20092;-75
2021/06/13 03:54:04;;;;;;;10.45;9.35;;;;;;;18.64;100.00;100797.00;5095020;28;20023;-76
2021/06/13 03:57:09;;;;;;;12.38;9.02;;;;;;;18.51;100.00;100788.81;5094008;28;20046;-76
2021/06/13 03:59:56;;;;;;;14.50;8.60;;;;;;;18.74;100.00;100780.56;5094219;28;20031;-76
2021/06/13 04:02:45;;;;;;;14.90;8.75;;;;;;;18.82;100.00;100772.22;5094863;28;20028;-77
2021/06/13 04:05:32;;;;;;;10.48;8.50;;;;;;;18.73;100.00;100780.66;5094088;28;20034;-75
2021/06/13 04:08:19;;;;;;;12.93;8.27;;;;;;;18.72;100.00;100784.22;5094189;28;20448;-75
2021/06/13 04:11:08;;;;;;;13.75;8.23;;;;;;;18.99;100.00;100775.75;5094813;28;20032;-75
2021/06/13 04:13:55;;;;;;;16.58;9.10;;;;;;;18.67;100.00;100776.50;5094488;28;20440;-75
2021/06/13 04:16:44;;;;;;;14.57;8.50;;;;;;;18.96;100.00;100780.34;5093736;28;20032;-75
2021/06/13 04:19:32;;;;;;;12.20;8.40;;;;;;;19.06;100.00;100770.97;5095337;28;20114;-75
2021/06/13 04:22:19;;;;;;;12.52;8.93;;;;;;;19.30;100.00;100779.50;5094152;28;20032;-76
2021/06/13 04:25:07;;;;;;;11.07;8.25;;;;;;;19.05;100.00;100769.28;5094844;28;20422;-76
2021/06/13 04:27:54;;;;;;;11.25;8.30;;;;;;;19.08;100.00;100764.66;5093969;28;20024;-76
2021/06/13 04:30:40;;;;;;;9.95;8.70;;;;;;;19.21;100.00;100762.25;5094758;28;20034;-75
2021/06/13 04:33:26;;;;;;;13.80;8.07;;;;;;;19.50;100.00;100761.59;5093705;28;20031;-75
2021/06/13 04:36:13;;;;;;;8.80;7.88;;;;;;;19.42;100.00;100761.13;5093620;28;20039;-75
2021/06/13 04:38:59;;;;;;;14.60;8.32;;;;;;;19.67;100.00;100750.91;5094566;28;20027;-76
2021/06/13 04:41:44;;;;;;;11.38;7.88;;;;;;;20.12;100.00;100744.88;5094705;28;20402;-77
2021/06/13 04:44:30;;;;;;;10.15;7.55;;;;;;;19.96;100.00;100731.53;5094035;28;20186;-75
2021/06/13 04:47:16;;;;;;;9.88;7.63;;;;;;;20.10;100.00;100730.81;5093125;28;20107;-76
2021/06/13 04:50:03;;;;;;;12.02;7.88;;;;;;;19.94;100.00;100722.81;5093998;28;20055;-76
2021/06/13 04:52:49;;;;;;;9.32;7.45;;;;;;;19.65;100.00;100728.84;5093911;28;20368;-76
2021/06/13 04:55:44;;;;;;;14.63;7.57;;;;;;;19.92;100.00;100735.31;5092915;28;20079;-75
2021/06/13 04:58:30;;;;;;;10.60;7.22;;;;;;;19.88;100.00;100738.22;5079816;28;20112;-76
2021/06/13 05:01:16;;;;;;;9.75;7.15;;;;;;;19.75;100.00;100739.84;5093814;28;20481;-76
2021/06/13 05:04:03;;;;;;;8.82;7.00;;;;;;;20.29;100.00;100739.47;5093825;28;20020;-76
2021/06/13 05:06:49;;;;;;;13.38;7.15;;;;;;;20.77;100.00;100742.81;5094366;28;20020;-76
2021/06/13 05:09:34;;;;;;;9.52;6.90;;;;;;;20.90;100.00;100750.94;5094929;28;20024;-76
2021/06/13 05:12:20;;;;;;;8.60;7.28;;;;;;;21.18;100.00;100749.22;5093649;28;20097;-75
2021/06/13 05:15:07;;;;;;;9.20;6.60;;;;;;;20.79;100.00;100746.25;5080320;28;20486;-75
2021/06/13 05:17:53;;;;;;;7.28;6.18;;;;;;;20.33;100.00;100741.88;5093270;28;20020;-75
2021/06/13 05:20:39;;;;;;;10.73;6.80;;;;;;;20.45;100.00;100735.00;5093302;28;20020;-75
2021/06/13 05:23:25;;;;;;;9.57;6.80;;;;;;;20.38;100.00;100737.16;5094907;28;20054;-76
2021/06/13 05:26:11;;;;;;;10.00;6.80;;;;;;;20.39;100.00;100732.69;5093089;28;20031;-76
2021/06/13 05:28:57;;;;;;;9.05;6.85;;;;;;;20.25;100.00;100717.50;5094242;28;20110;-76
2021/06/13 05:31:43;;;;;;;8.43;6.50;;;;;;;20.94;100.00;100723.22;5093403;28;20125;-76
2021/06/13 05:34:30;;;;;;;9.07;7.05;;;;;;;21.19;100.00;100724.31;5094207;28;20027;-75
2021/06/13 05:37:15;;;;;;;10.52;7.25;;;;;;;20.51;100.00;100727.50;5093514;28;20016;-75
2021/06/13 05:40:02;;;;;;;7.55;6.82;;;;;;;20.93;100.00;100718.84;5094167;28;20051;-76
2021/06/13 05:42:48;;;;;;;9.38;7.03;;;;;;;20.82;100.00;100731.91;5093070;28;20024;-76
2021/06/13 05:45:35;;;;;;;9.13;6.82;;;;;;;21.32;100.00;100725.28;5093422;28;20368;-76
2021/06/13 05:48:21;;;;;;;9.63;7.55;;;;;;;21.35;100.00;100733.09;5093265;28;20082;-76
2021/06/13 05:51:07;;;;;;;12.10;6.97;;;;;;;21.49;100.00;100724.22;5093709;28;20469;-76
2021/06/13 05:53:52;;;;;;;10.52;7.28;;;;;;;21.51;100.00;100731.19;5093457;28;20140;-76
2021/06/13 05:56:38;;;;;;;8.20;7.30;;;;;;;21.68;100.00;100711.44;5092810;28;20342;-76
2021/06/13 05:59:24;;;;;;;10.38;7.38;;;;;;;22.04;100.00;100710.00;5094222;28;20035;-76
2021/06/13 06:02:10;;;;;;;10.32;7.63;;;;;;;21.64;100.00;100710.81;5097069;28;20125;-76
2021/06/13 06:04:55;;;;;;;8.00;7.20;;;;;;;21.63;100.00;100711.75;5096921;28;20448;-75
2021/06/13 06:07:41;;;;;;;9.68;6.93;;;;;;;21.40;100.00;100709.66;5095734;28;20024;-76
2021/06/13 06:10:29;;;;;;;10.10;6.97;;;;;;;21.49;100.00;100709.09;5096775;28;20107;-76
2021/06/13 06:13:15;;;;;;;9.25;6.80;;;;;;;21.70;100.00;100704.22;5096531;28;20038;-77
2021/06/13 06:16:01;;;;;;;7.65;6.82;;;;;;;22.33;100.00;100702.75;5096783;28;20032;-77
2021/06/13 06:18:47;;;;;;;23.80;19.65;;;;;;;22.60;100.00;100687.63;5096207;28;20449;-75
2021/06/13 06:21:33;;;;;;;11.80;6.88;;;;;;;22.42;100.00;100680.81;5096675;28;20483;-77
2021/06/13 06:24:18;;;;;;;8.98;7.00;;;;;;;23.18;100.00;100672.81;5095996;28;20024;-76
2021/06/13 06:27:04;;;;;;;15.23;12.00;;;;;;;23.13;100.00;100671.44;5096140;28;20353;-75
2021/06/13 06:29:50;;;;;;;12.27;8.50;;;;;;;22.46;100.00;100677.84;5096551;28;20424;-76
2021/06/13 06:32:36;;;;;;;9.68;6.93;;;;;;;23.42;100.00;100677.44;5096787;28;20115;-74
2021/06/13 06:35:24;;;;;;;7.00;6.30;;;;;;;23.78;100.00;100678.31;5097239;28;20035;-75
2021/06/13 06:38:09;;;;;;;9.02;6.70;;;;;;;23.04;100.00;100685.44;5096286;28;20032;-76
2021/06/13 06:40:55;;;;;;;10.00;7.65;;;;;;;22.69;100.00;100690.53;5096549;28;20059;-76
2021/06/13 06:43:41;;;;;;;8.57;6.65;;;;;;;22.78;100.00;100683.69;5095985;28;20093;-76
2021/06/13 06:46:27;;;;;;;9.70;6.50;;;;;;;23.30;100.00;100679.16;5096595;28;20027;-76
2021/06/13 06:49:13;;;;;;;7.53;6.30;;;;;;;23.07;100.00;100680.72;5095698;28;20032;-75
2021/06/13 06:51:59;;;;;;;9.13;6.18;;;;;;;23.64;100.00;100680.28;5095934;28;20024;-76
2021/06/13 06:54:45;;;;;;;8.75;6.20;;;;;;;23.03;100.00;100679.22;5096756;28;20115;-76
2021/06/13 06:57:31;;;;;;;8.30;5.90;;;;;;;23.28;100.00;100657.84;5095538;28;20044;-76
2021/06/13 07:00:17;;;;;;;7.45;6.25;;;;;;;23.89;100.00;100654.31;5095788;28;20508;-77
2021/06/13 07:03:07;;;;;;;7.78;6.03;;;;;;;23.68;100.00;100647.00;5095983;28;20032;-76
2021/06/13 07:05:53;;;;;;;7.72;6.38;;;;;;;22.93;100.00;100643.41;5096403;28;20067;-76
2021/06/13 07:08:39;;;;;;;6.45;5.85;;;;;;;23.35;100.00;100652.97;5095608;28;20020;-76
2021/06/13 07:11:24;;;;;;;6.47;5.70;;;;;;;24.07;100.00;100653.00;5095741;28;20428;-76
2021/06/13 07:14:10;;;;;;;8.93;5.80;;;;;;;23.51;100.00;100650.03;5095501;28;20024;-76
2021/06/13 07:16:56;;;;;;;6.50;5.90;;;;;;;23.78;100.00;100656.09;5096063;28;20418;-76
2021/06/13 07:19:42;;;;;;;6.53;5.80;;;;;;;24.25;100.00;100650.78;5095419;28;20023;-77
2021/06/13 07:22:28;;;;;;;8.63;5.82;;;;;;;24.11;100.00;100650.97;5095908;28;20023;-76
2021/06/13 07:25:13;;;;;;;6.22;5.57;;;;;;;24.65;100.00;100650.38;5094930;28;20089;-75
2021/06/13 07:27:59;;;;;;;7.35;6.43;;;;;;;24.55;100.00;100654.66;5095794;28;20019;-75
2021/06/13 07:30:45;;;;;;;6.70;6.10;;;;;;;24.23;100.00;100660.75;5095534;28;20452;-77
2021/06/13 07:33:31;;;;;;;8.07;6.03;;;;;;;25.03;100.00;100655.47;5095680;28;20368;-76
2021/06/13 07:36:17;;;;;;;9.70;5.68;;;;;;;24.03;100.00;100653.34;5095895;28;20057;-76
2021/06/13 07:39:06;;;;;;;7.55;5.85;;;;;;;24.46;100.00;100652.69;5095327;28;20123;-75
2021/06/13 07:41:54;;;;;;;7.28;5.72;;;;;;;24.69;100.00;100656.34;5094754;28;20429;-75
2021/06/13 07:44:40;;;;;;;7.90;5.30;;;;;;;24.73;100.00;100644.41;5094982;28;20321;-76
2021/06/13 07:47:28;;;;;;;6.82;5.53;;;;;;;25.08;100.00;100651.41;5095771;28;20052;-75
2021/06/13 07:50:16;;;;;;;9.35;5.75;;;;;;;24.97;100.00;100648.75;5095416;28;20031;-76
2021/06/13 07:53:02;;;;;;;6.03;5.43;;;;;;;24.98;100.00;100649.56;5094770;28;20028;-76
2021/06/13 07:55:48;;;;;;;6.38;5.55;;;;;;;24.61;100.00;100659.63;5094181;28;20127;-75
2021/06/13 07:58:33;;;;;;;8.93;5.72;;;;;;;24.67;100.00;100645.72;5094333;28;20388;-75
2021/06/13 08:01:19;;;;;;;6.95;5.45;;;;;;;24.76;100.00;100631.66;5093987;28;20097;-75
2021/06/13 08:04:05;;;;;;;6.13;5.53;;;;;;;25.42;100.00;100636.22;5095221;28;20027;-76
2021/06/13 08:06:51;;;;;;;7.60;4.90;;;;;;;26.70;100.00;100643.38;5093901;28;20448;-76
2021/06/13 08:09:37;;;;;;;11.95;5.13;;;;;;;25.63;100.00;100638.06;5094899;28;20111;-76
2021/06/13 08:12:22;;;;;;;6.38;4.60;;;;;;;25.66;100.00;100632.44;5094556;28;20205;-75
2021/06/13 08:15:09;;;;;;;6.30;4.82;;;;;;;26.19;100.00;100630.75;5093681;28;20020;-76
2021/06/13 08:17:56;;;;;;;7.18;5.00;;;;;;;25.75;100.00;100634.38;5093975;28;20028;-76
2021/06/13 08:20:42;;;;;;;8.10;5.18;;;;;;;26.60;100.00;100631.69;5094171;28;20020;-75
2021/06/13 08:23:31;;;;;;;5.20;4.70;;;;;;;26.76;100.00;100632.09;5094489;28;20047;-76
2021/06/13 08:26:17;;;;;;;6.43;4.95;;;;;;;26.40;100.00;100637.03;5093150;28;20030;-76
2021/06/13 08:29:03;;;;;;;7.32;5.18;;;;;;;26.37;100.00;100630.06;5094494;28;20089;-76
2021/06/13 08:31:49;;;;;;;10.10;5.28;;;;;;;25.29;100.00;100625.66;5094909;28;20406;-76
2021/06/13 08:34:35;;;;;;;9.07;5.65;;;;;;;25.34;100.00;100619.91;5094006;28;20440;-76
2021/06/13 08:37:21;;;;;;;8.38;6.03;;;;;;;25.17;100.00;100610.50;5093381;28;20097;-76
2021/06/13 08:40:10;;;;;;;7.53;5.47;;;;;;;25.57;100.00;100624.28;5094425;28;20047;-76
2021/06/13 08:42:57;;;;;;;10.38;5.70;;;;;;;25.43;100.00;100616.50;5094297;28;20474;-75
2021/06/13 08:45:44;;;;;;;9.25;5.78;;;;;;;25.58;100.00;100613.44;5094272;28;20024;-76
2021/06/13 08:48:31;;;;;;;6.80;6.10;;;;;;;25.98;100.00;100616.41;5093094;28;20028;-75
2021/06/13 08:51:18;;;;;;;7.85;6.50;;;;;;;25.81;100.00;100614.22;5095096;28;20040;-75
2021/06/13 08:54:04;;;;;;;10.02;5.38;;;;;;;26.34;100.00;100610.66;5094111;28;20085;-76
2021/06/13 08:56:50;;;;;;;6.38;5.70;;;;;;;25.88;100.00;100616.28;5093037;28;20048;-76
2021/06/13 08:59:37;;;;;;;6.35;5.25;;;;;;;26.15;100.00;100611.34;5092502;28;20059;-76
2021/06/13 09:02:23;;;;;;;13.57;5.28;;;;;;;25.96;100.00;100610.34;5093608;28;20028;-76
2021/06/13 09:05:13;;;;;;;5.95;5.35;;;;;;;25.96;100.00;100610.34;5093214;28;20036;-76
2021/06/13 09:08:10;;;;;;;6.63;5.18;;;;;;;25.37;100.00;100616.97;5094377;28;20066;-76
2021/06/13 09:10:56;;;;;;;6.70;5.35;;;;;;;25.19;100.00;100605.84;5093008;28;20085;-76
2021/06/13 09:13:45;;;;;;;6.30;5.70;;;;;;;25.07;100.00;100604.13;5093763;28;20107;-76
2021/06/13 09:16:31;;;;;;;6.18;5.57;;;;;;;25.34;100.00;100603.81;5093815;28;20024;-76
2021/06/13 09:19:17;;;;;;;8.30;7.10;;;;;;;25.11;100.00;100605.59;5093555;28;20031;-76
2021/06/13 09:22:10;;;;;;;11.40;7.40;;;;;;;25.01;100.00;100615.34;5094377;28;20444;-75
2021/06/13 09:25:05;;;;;;;8.55;7.18;;;;;;;24.38;100.00;100628.31;5093439;28;20067;-76
2021/06/13 09:28:12;;;;;;;9.25;6.60;;;;;;;24.39;100.00;100627.34;5094557;28;20024;-76
2021/06/13 09:30:58;;;;;;;7.50;6.78;;;;;;;24.13;100.00;100630.28;5092891;28;20035;-76
2021/06/13 09:33:46;;;;;;;7.97;6.82;;;;;;;24.21;100.00;100630.56;5095315;28;20123;-75
2021/06/13 09:36:33;;;;;;;8.57;7.70;;;;;;;24.38;100.00;100632.81;5096963;28;20313;-75
2021/06/13 09:39:19;;;;;;;13.07;7.65;;;;;;;24.35;100.00;100641.94;5097216;28;20437;-76
2021/06/13 09:42:09;;;;;;;9.07;7.63;;;;;;;24.02;100.00;100646.28;5098027;28;20100;-76
2021/06/13 09:45:17;;;;;;;11.65;8.70;;;;;;;23.74;100.00;100635.88;5097285;28;20137;-76
2021/06/13 09:48:04;;;;;;;8.77;7.85;;;;;;;23.68;100.00;100638.97;5097009;28;20031;-75
2021/06/13 09:51:05;;;;;;;8.82;7.95;;;;;;;23.58;100.00;100640.63;5097186;28;20032;-75
2021/06/13 09:53:55;;;;;;;8.90;8.00;;;;;;;23.80;100.00;100646.09;5096883;28;20046;-75
2021/06/13 09:56:41;;;;;;;9.35;8.18;;;;;;;23.53;100.00;100648.97;5097285;28;20055;-74
2021/06/13 09:59:32;;;;;;;9.00;8.10;;;;;;;23.50;100.00;100645.66;5096349;28;20103;-75
2021/06/13 10:02:29;;;;;;;11.15;8.60;;;;;;;24.12;100.00;100650.00;5098055;28;20414;-76
2021/06/13 10:05:15;;;;;;;11.38;8.25;;;;;;;24.15;100.00;100650.59;5096336;28;20023;-76
2021/06/13 10:08:14;;;;;;;10.15;9.13;;;;;;;23.81;100.00;100654.03;5097766;28;20024;-75
2021/06/13 10:11:02;;;;;;;9.50;8.50;;;;;;;23.54;100.00;100660.53;5096917;28;20028;-76
2021/06/13 10:13:52;;;;;;;10.68;9.15;;;;;;;23.49;100.00;100658.16;5096560;28;20028;-76
2021/06/13 10:16:52;;;;;;;10.25;9.25;;;;;;;23.41;100.00;100655.19;5096275;28;20043;-75
2021/06/13 10:19:44;;;;;;;10.93;9.80;;;;;;;23.74;100.00;100665.31;5097517;28;20092;-75
2021/06/13 10:22:30;;;;;;;11.50;9.80;;;;;;;23.20;100.00;100662.88;5096033;28;20035;-75
2021/06/13 10:25:16;;;;;;;10.23;9.23;;;;;;;23.69;100.00;100654.06;5097617;28;20126;-74
2021/06/13 10:28:03;;;;;;;12.07;10.20;;;;;;;23.42;100.00;100647.06;5096976;28;20031;-76
2021/06/13 10:30:49;;;;;;;11.13;10.02;;;;;;;23.45;100.00;100654.00;5096651;28;20376;-76
2021/06/13 10:33:35;;;;;;;11.27;10.00;;;;;;;23.17;100.00;100639.03;5096958;28;20036;-75
2021/06/13 10:36:20;;;;;;;10.15;9.15;;;;;;;22.90;100.00;100648.97;5096647;28;20032;-75
2021/06/13 10:39:10;;;;;;;10.05;9.02;;;;;;;22.75;100.00;100650.03;5095645;28;20432;-75
2021/06/13 10:41:56;;;;;;;11.10;9.90;;;;;;;22.54;100.00;100650.63;5096314;28;20039;-76
2021/06/13 10:44:48;;;;;;;10.35;9.35;;;;;;;22.40;100.00;100646.19;5095997;28;20169;-75
2021/06/13 10:47:36;;;;;;;10.25;8.98;;;;;;;22.78;100.00;100641.81;5096188;28;20089;-76
2021/06/13 10:50:33;;;;;;;10.93;9.52;;;;;;;22.59;100.00;100633.31;5096930;28;20083;-76
2021/06/13 10:53:34;;;;;;;14.55;9.65;;;;;;;22.76;100.00;100621.50;5095640;28;20024;-75
2021/06/13 10:56:25;;;;;;;13.50;9.32;;;;;;;22.56;100.00;100617.53;5096876;28;20051;-76
2021/06/13 10:59:13;;;;;;;13.38;9.98;;;;;;;22.61;100.00;100610.06;5095076;28;20057;-76
2021/06/13 11:02:08;;;;;;;11.40;10.13;;;;;;;22.60;100.00;100603.00;5096427;28;20389;-75
2021/06/13 11:05:01;;;;;;;13.52;11.20;;;;;;;22.63;100.00;100586.75;5095361;28;20024;-76
2021/06/13 11:07:56;;;;;;;12.63;11.32;;;;;;;22.47;100.00;100587.94;5096265;28;20020;-76
2021/06/13 11:10:43;;;;;;;13.27;11.18;;;;;;;22.81;100.00;100580.16;5096529;28;20032;-75
2021/06/13 11:13:29;;;;;;;13.57;12.20;;;;;;;22.40;100.00;100584.78;5094986;28;20016;-75
2021/06/13 11:16:15;;;;;;;23.38;13.70;;;;;;;21.97;100.00;100593.09;5095365;28;20028;-75
2021/06/13 11:19:23;;;;;;;25.20;16.52;;;;;;;21.54;100.00;100616.31;5094877;28;20070;-75
2021/06/13 11:22:18;;;;;;;21.52;18.75;;;;;;;20.85;100.00;100614.53;5095259;28;20110;-74
2021/06/13 11:25:17;;;;;;;23.48;17.88;;;;;;;20.67;100.00;100615.66;5095600;28;20460;-75
2021/06/13 11:28:27;;;;;;;19.85;17.70;;;;;;;20.56;100.00;100626.06;5094970;28;20020;-75
2021/06/13 11:31:19;;;;;;;21.75;15.95;;;;;;;20.23;100.00;100638.72;5094731;28;20032;-75
2021/06/13 11:34:07;;;;;;;18.25;15.43;;;;;;;20.30;100.00;100632.97;5095229;28;20047;-74
2021/06/13 11:36:53;;;;;;;19.00;16.60;;;;;;;20.52;100.00;100633.41;5094625;28;20112;-74
2021/06/13 11:39:53;;;;;;;22.00;18.80;;;;;;;20.66;100.00;100628.09;5094715;28;20028;-75
2021/06/13 11:43:12;;;;;;;19.15;17.20;;;;;;;20.79;100.00;100625.56;5094546;28;20063;-75
2021/06/13 11:46:03;;;;;;;19.33;17.27;;;;;;;21.15;100.00;100632.19;5095101;28;20042;-74
2021/06/13 11:48:53;;;;;;;17.95;15.95;;;;;;;21.45;100.00;100626.72;5094539;28;20027;-74
2021/06/13 11:52:07;;;;;;;17.40;15.60;;;;;;;21.79;100.00;100623.66;5094851;28;20027;-75
2021/06/13 11:54:59;;;;;;;14.07;12.68;;;;;;;21.61;100.00;100628.31;5094602;28;20341;-75
2021/06/13 11:57:45;;;;;;;15.48;13.40;;;;;;;22.05;100.00;100622.78;5093452;28;20468;-75
2021/06/13 12:00:31;;;;;;;13.98;12.60;;;;;;;21.56;100.00;100614.44;5094577;28;20036;-75
2021/06/13 12:03:17;;;;;;;14.80;12.90;;;;;;;21.52;100.00;100628.91;5094375;28;20039;-75
2021/06/13 12:06:05;;;;;;;15.75;13.80;;;;;;;21.51;100.00;100632.53;5094360;28;20060;-75
2021/06/13 12:08:53;;;;;;;15.15;13.73;;;;;;;21.71;100.00;100653.50;5094940;28;20338;-75
2021/06/13 12:11:49;;;;;;;14.73;13.23;;;;;;;21.20;100.00;100647.88;5094474;28;20528;-75
2021/06/13 12:14:40;;;;;;;15.38;13.82;;;;;;;21.15;100.00;100656.16;5094898;28;20039;-74
2021/06/13 12:17:26;;;;;;;14.65;13.23;;;;;;;21.30;100.00;100665.84;5094042;28;20035;-75
2021/06/13 12:20:19;;;;;;;16.52;14.82;;;;;;;21.23;100.00;100651.22;5095494;28;20106;-75
2021/06/13 12:23:07;;;;;;;15.18;13.73;;;;;;;21.16;100.00;100646.34;5093593;28;20113;-75
2021/06/13 12:28:59;;;;;;;12.85;11.52;;;;;;;21.48;100.00;100646.06;5094229;28;20368;-75
2021/06/13 12:31:44;;;;;;;15.18;10.98;;;;;;;21.87;100.00;100642.69;5093268;28;20031;-75
2021/06/13 12:34:30;;;;;;;9.95;8.95;;;;;;;21.38;100.00;100641.41;5094337;28;20375;-75
2021/06/13 12:37:18;;;;;;;11.68;9.60;;;;;;;21.63;100.00;100633.56;5094238;28;20120;-75
2021/06/13 12:40:12;;;;;;;9.10;8.30;;;;;;;21.68;100.00;100640.31;5095605;28;20432;-76
2021/06/13 12:42:58;;;;;;;9.15;8.20;;;;;;;21.56;100.00;100640.22;5094155;28;20024;-75
2021/06/13 12:45:45;;;;;;;9.18;7.70;;;;;;;22.21;100.00;100634.16;5093490;28;20474;-74
2021/06/13 12:48:31;;;;;;;8.23;6.93;;;;;;;22.48;100.00;100638.56;5093079;28;20517;-74
2021/06/13 12:51:24;;;;;;;7.60;6.90;;;;;;;22.18;100.00;100635.22;5092478;28;20111;-75